Time;durP1;ratioP1;P1;durP2;ratioP2;P2;SDS_P1;SDS_P2;PMS_P1;PMS_P2;Temp;Humidity;BMP_temperature;BMP_pressure;BME280_temperature;BME280_humidity;BME280_pressure;Samples;Min_cycle;Max_cycle;Signal;HPM_P1;HPM_P2
2022/02/06 00:00:59;;;;;;;24.73;23.10;;;3.10;81.30;;;;;;5075288;28;20251;-73
2022/02/06 00:03:30;;;;;;;23.85;22.55;;;3.10;81.60;;;;;;5075385;28;20720;-72
2022/02/06 00:05:57;;;;;;;24.48;23.02;;;3.10;81.60;;;;;;5075381;28;20196;-73
2022/02/06 00:08:24;;;;;;;23.52;22.00;;;3.10;81.80;;;;;;5075196;28;20200;-73
2022/02/06 00:10:51;;;;;;;23.10;21.75;;;3.00;82.10;;;;;;5075166;28;20265;-73
2022/02/06 00:13:18;;;;;;;22.90;21.27;;;3.00;82.10;;;;;;5074789;28;20689;-72
2022/02/06 00:15:45;;;;;;;21.88;20.38;;;3.00;82.10;;;;;;5074788;28;20199;-73
2022/02/06 00:18:12;;;;;;;23.38;22.00;;;3.00;82.10;;;;;;5075027;28;20279;-73
2022/02/06 00:20:49;;;;;;;23.05;21.63;;;3.10;81.80;;;;;;5074582;28;20598;-73
2022/02/06 00:23:18;;;;;;;24.90;22.75;;;3.20;81.30;;;;;;5074935;28;20203;-73
2022/02/06 00:25:54;;;;;;;22.65;21.25;;;3.10;81.40;;;;;;5074906;28;20250;-73
2022/02/06 00:28:33;;;;;;;23.02;21.55;;;3.10;81.70;;;;;;5074922;28;20207;-73
2022/02/06 00:31:10;;;;;;;23.73;22.05;;;3.20;81.60;;;;;;5074557;28;20215;-73
2022/02/06 00:33:43;;;;;;;22.58;20.95;;;3.00;82.10;;;;;;5074791;28;20276;-73
2022/02/06 00:39:07;;;;;;;22.15;20.85;;;3.00;82.00;;;;;;5062756;28;20206;-73
2022/02/06 00:41:35;;;;;;;21.92;20.65;;;3.00;82.00;;;;;;5074735;28;20226;-73
2022/02/06 00:44:04;;;;;;;22.85;21.17;;;3.00;82.30;;;;;;5074694;28;20534;-73
2022/02/06 00:46:32;;;;;;;22.17;20.88;;;3.00;82.30;;;;;;5074623;28;20599;-73
2022/02/06 00:49:03;;;;;;;21.02;19.73;;;3.00;82.80;;;;;;5074637;28;20250;-73
2022/02/06 00:51:39;;;;;;;21.50;19.98;;;3.00;82.90;;;;;;5074268;28;20306;-73
2022/02/06 00:54:05;;;;;;;22.75;21.20;;;3.00;83.20;;;;;;5074523;28;20220;-73
2022/02/06 00:56:32;;;;;;;21.40;19.90;;;3.10;83.00;;;;;;5074269;28;20714;-73
2022/02/06 00:58:59;;;;;;;21.45;19.55;;;3.20;83.00;;;;;;5074078;28;20290;-73
2022/02/06 01:01:26;;;;;;;21.63;19.98;;;3.30;83.00;;;;;;5074048;28;20306;-73
2022/02/06 01:03:54;;;;;;;20.73;19.38;;;3.50;81.90;;;;;;5074297;28;20203;-73
2022/02/06 01:06:21;;;;;;;21.10;19.73;;;3.60;81.30;;;;;;5074113;28;20249;-73
2022/02/06 01:08:50;;;;;;;20.13;19.02;;;3.80;80.30;;;;;;5074126;28;20203;-71
2022/02/06 01:11:17;;;;;;;20.63;19.52;;;3.90;80.00;;;;;;5073790;28;20318;-71
2022/02/06 01:13:59;;;;;;;22.38;20.85;;;4.00;79.70;;;;;;5073682;28;20211;-71
2022/02/06 01:16:30;;;;;;;20.83;19.50;;;4.10;78.90;;;;;;5073523;28;20235;-71
2022/02/06 01:19:00;;;;;;;21.42;19.67;;;4.10;78.40;;;;;;5073916;28;20238;-71
2022/02/06 01:21:43;;;;;;;21.60;20.15;;;4.20;78.20;;;;;;5073623;28;20215;-73
2022/02/06 01:24:15;;;;;;;21.92;20.63;;;4.30;77.80;;;;;;5073845;28;20206;-73
2022/02/06 01:26:46;;;;;;;21.15;19.67;;;4.30;78.00;;;;;;5073827;28;20197;-73
2022/02/06 01:29:20;;;;;;;20.75;19.40;;;4.30;78.00;;;;;;5073653;28;20196;-73
2022/02/06 01:31:54;;;;;;;21.15;19.92;;;4.40;77.60;;;;;;5073572;28;20750;-72
2022/02/06 01:34:26;;;;;;;20.48;19.42;;;4.40;77.70;;;;;;5073427;28;20245;-71
2022/02/06 01:37:06;;;;;;;21.58;20.17;;;4.30;77.70;;;;;;5073532;28;20200;-71
2022/02/06 01:39:51;;;;;;;20.33;19.13;;;4.40;77.50;;;;;;5073261;28;20552;-71
2022/02/06 01:42:27;;;;;;;20.60;19.15;;;4.40;77.70;;;;;;5073430;28;20283;-71
2022/02/06 01:45:08;;;;;;;21.58;19.98;;;4.40;78.80;;;;;;5073289;28;20195;-71
2022/02/06 02:01:33;;;;;;;20.90;19.60;;;4.40;77.80;;;;;;5072882;28;20218;-72
2022/02/06 02:04:08;;;;;;;20.08;18.88;;;4.40;77.80;;;;;;5073016;28;20200;-72
2022/02/06 02:07:00;;;;;;;20.27;19.17;;;4.40;79.00;;;;;;5073024;28;20548;-72
2022/02/06 02:12:26;;;;;;;21.38;19.98;;;4.40;77.80;;;;;;5071291;28;20191;-72
2022/02/06 02:20:46;;;;;;;20.90;19.40;;;4.60;77.40;;;;;;5072463;28;20305;-72
2022/02/06 02:23:35;;;;;;;21.63;20.23;;;4.70;77.00;;;;;;5073295;28;20270;-73
2022/02/06 02:29:29;;;;;;;21.15;19.77;;;4.80;76.80;;;;;;5070527;28;20759;-71
2022/02/06 02:32:26;;;;;;;20.50;19.40;;;4.70;76.90;;;;;;5072454;28;20216;-71
2022/02/06 02:43:35;;;;;;;20.30;19.10;;;4.80;76.20;;;;;;5072631;28;20557;-71
2022/02/06 02:46:07;;;;;;;20.13;19.02;;;4.70;76.10;;;;;;5072490;28;20245;-71
2022/02/06 02:48:35;;;;;;;20.90;19.60;;;4.70;75.90;;;;;;5072519;28;20196;-72
2022/02/06 02:51:06;;;;;;;20.77;19.30;;;4.70;76.10;;;;;;5072311;28;20247;-73
2022/02/06 02:53:38;;;;;;;20.48;19.27;;;4.60;76.70;;;;;;5072451;28;20222;-71
2022/02/06 02:56:18;;;;;;;20.63;18.83;;;4.70;76.30;;;;;;5072339;28;20683;-71
2022/02/06 02:58:53;;;;;;;21.02;19.67;;;4.70;76.20;;;;;;5072498;28;20196;-71
2022/02/06 03:01:27;;;;;;;21.55;20.00;;;4.80;76.30;;;;;;5072186;28;20215;-71
2022/02/06 03:03:54;;;;;;;20.92;19.48;;;4.80;76.40;;;;;;5072209;28;20246;-71
2022/02/06 03:06:21;;;;;;;20.35;19.17;;;4.90;75.80;;;;;;5072155;28;20210;-71
2022/02/06 03:08:51;;;;;;;20.75;19.25;;;4.90;75.70;;;;;;5072197;28;20278;-71
2022/02/06 03:11:18;;;;;;;20.58;19.13;;;4.90;75.40;;;;;;5072114;28;20256;-71
2022/02/06 03:13:51;;;;;;;20.85;19.40;;;4.90;75.90;;;;;;5072110;28;20222;-71
2022/02/06 03:16:23;;;;;;;19.67;18.60;;;5.00;75.40;;;;;;5071976;28;20938;-71
2022/02/06 03:18:57;;;;;;;20.00;18.77;;;5.00;75.10;;;;;;5072167;28;20214;-71
2022/02/06 03:21:27;;;;;;;20.30;19.30;;;5.00;75.00;;;;;;5071800;28;20221;-71
2022/02/06 03:23:58;;;;;;;20.88;19.20;;;5.00;74.90;;;;;;5075335;28;20196;-71
2022/02/06 03:26:26;;;;;;;19.88;18.70;;;5.00;75.10;;;;;;5076065;28;20196;-71
2022/02/06 03:28:54;;;;;;;20.17;19.08;;;5.10;74.80;;;;;;5076024;28;20196;-71
2022/02/06 03:31:22;;;;;;;20.40;19.20;;;5.00;76.20;;;;;;5075709;28;20270;-70
2022/02/06 03:33:50;;;;;;;21.42;19.80;;;5.00;75.70;;;;;;5075980;28;20212;-71
2022/02/06 03:36:18;;;;;;;21.33;20.02;;;5.00;75.40;;;;;;5075999;28;20200;-71
2022/02/06 03:38:47;;;;;;;20.45;19.08;;;5.00;75.00;;;;;;5075785;28;20196;-71
2022/02/06 03:41:17;;;;;;;20.55;19.25;;;5.00;75.00;;;;;;5075826;28;20212;-71
2022/02/06 03:43:52;;;;;;;19.63;18.52;;;4.90;75.40;;;;;;5075749;28;20192;-71
2022/02/06 03:46:26;;;;;;;20.63;19.23;;;5.00;75.20;;;;;;5075808;28;20203;-71
2022/02/06 03:48:58;;;;;;;20.40;19.10;;;5.20;74.70;;;;;;5075669;28;20253;-71
2022/02/06 03:51:31;;;;;;;20.20;19.00;;;5.20;74.90;;;;;;5075558;28;20352;-71
2022/02/06 03:53:58;;;;;;;20.65;19.42;;;5.20;74.90;;;;;;5075464;28;20223;-71
2022/02/06 03:56:28;;;;;;;20.55;19.45;;;5.20;75.50;;;;;;5075446;28;20239;-71
2022/02/06 03:58:55;;;;;;;20.83;19.33;;;5.10;75.30;;;;;;5075490;28;20196;-71
2022/02/06 04:01:22;;;;;;;20.30;19.05;;;5.00;75.50;;;;;;5075296;28;20219;-71
2022/02/06 04:03:50;;;;;;;20.90;19.70;;;5.20;75.20;;;;;;5075512;28;20518;-71
2022/02/06 04:06:16;;;;;;;20.52;19.52;;;5.10;75.10;;;;;;5075313;28;20751;-71
2022/02/06 04:08:44;;;;;;;20.38;19.02;;;5.10;75.00;;;;;;5075274;28;20577;-71
2022/02/06 04:11:15;;;;;;;20.60;19.38;;;5.20;74.90;;;;;;5075092;28;20216;-71
2022/02/06 04:13:54;;;;;;;20.38;19.38;;;5.20;75.30;;;;;;5075155;28;20224;-71
2022/02/06 04:16:27;;;;;;;20.38;18.88;;;5.20;74.70;;;;;;5074850;28;20561;-71
2022/02/06 04:19:05;;;;;;;21.85;20.25;;;5.30;74.80;;;;;;5075067;28;20657;-71
2022/02/06 04:21:33;;;;;;;21.23;19.83;;;5.20;74.40;;;;;;5074867;28;20250;-71
2022/02/06 04:24:00;;;;;;;20.02;18.92;;;5.30;74.40;;;;;;5075036;28;20195;-71
2022/02/06 04:26:27;;;;;;;20.05;18.88;;;5.30;74.40;;;;;;5074968;28;20564;-71
2022/02/06 04:28:56;;;;;;;20.25;19.00;;;5.40;74.00;;;;;;5074954;28;20195;-71
2022/02/06 04:31:23;;;;;;;21.25;20.00;;;5.50;73.70;;;;;;5074591;28;20246;-71
2022/02/06 04:33:51;;;;;;;21.25;19.92;;;5.40;73.90;;;;;;5074443;28;20216;-71
2022/02/06 04:36:19;;;;;;;23.55;22.08;;;5.40;73.90;;;;;;5074665;28;20204;-71
2022/02/06 04:38:57;;;;;;;20.85;19.52;;;5.40;73.70;;;;;;5074717;28;20199;-71
2022/02/06 04:41:44;;;;;;;20.75;19.55;;;5.40;73.70;;;;;;5074620;28;20246;-71
2022/02/06 04:44:36;;;;;;;20.60;19.23;;;5.50;73.80;;;;;;5074760;28;20607;-71
2022/02/06 04:47:52;;;;;;;20.90;19.73;;;5.50;73.50;;;;;;5074655;28;20199;-71
2022/02/06 05:10:55;;;;;;;20.63;19.13;;;5.60;73.20;;;;;;5072583;28;20223;-71
2022/02/06 05:18:40;;;;;;;20.20;19.17;;;5.70;73.30;;;;;;5073749;28;20198;-71
2022/02/06 05:29:32;;;;;;;20.83;19.48;;;5.70;73.50;;;;;;5062961;28;20630;-70
2022/02/06 05:32:13;;;;;;;23.65;21.90;;;5.60;73.60;;;;;;5073692;28;20251;-71
2022/02/06 05:34:41;;;;;;;21.88;20.67;;;5.60;73.80;;;;;;5073533;28;20711;-71
2022/02/06 05:37:08;;;;;;;23.38;21.35;;;5.60;73.60;;;;;;5073660;28;20202;-71
2022/02/06 05:39:35;;;;;;;21.77;20.48;;;5.70;73.50;;;;;;5073287;28;20196;-71
2022/02/06 05:42:02;;;;;;;21.17;19.98;;;5.70;73.80;;;;;;5073511;28;20724;-71
2022/02/06 05:44:29;;;;;;;20.02;18.92;;;5.70;73.70;;;;;;5073408;28;20188;-71
2022/02/06 05:46:56;;;;;;;20.92;19.73;;;5.60;73.70;;;;;;5072581;28;20569;-71
2022/02/06 05:49:22;;;;;;;21.33;20.23;;;5.70;73.80;;;;;;5073220;28;20235;-71
2022/02/06 05:51:51;;;;;;;20.85;19.45;;;5.60;73.90;;;;;;5073172;28;20299;-71
2022/02/06 05:54:18;;;;;;;20.90;19.60;;;5.60;74.00;;;;;;5073273;28;20222;-71
2022/02/06 05:56:45;;;;;;;21.05;19.95;;;5.70;74.00;;;;;;5073070;28;20196;-71
2022/02/06 05:59:11;;;;;;;21.08;19.70;;;5.70;74.00;;;;;;5073158;28;20291;-71
2022/02/06 06:01:38;;;;;;;22.40;21.00;;;5.80;73.70;;;;;;5073027;28;20243;-70
2022/02/06 06:04:05;;;;;;;21.08;19.88;;;5.80;73.70;;;;;;5073154;28;20286;-70
2022/02/06 06:06:35;;;;;;;21.55;20.35;;;5.80;73.50;;;;;;5073064;28;20199;-71
2022/02/06 06:09:05;;;;;;;21.42;20.05;;;5.90;73.60;;;;;;5072893;28;20192;-70
2022/02/06 06:11:32;;;;;;;21.20;20.00;;;5.90;73.60;;;;;;5072748;28;20219;-71
2022/02/06 06:13:59;;;;;;;21.75;20.35;;;5.90;73.60;;;;;;5072728;28;20215;-70
2022/02/06 06:16:26;;;;;;;22.20;20.80;;;5.80;73.90;;;;;;5072829;28;20316;-71
2022/02/06 06:18:53;;;;;;;21.48;20.27;;;5.70;74.20;;;;;;5073175;28;20236;-71
2022/02/06 06:21:23;;;;;;;21.80;20.50;;;5.80;73.90;;;;;;5072558;28;20223;-70
2022/02/06 06:23:50;;;;;;;23.05;21.75;;;5.80;73.80;;;;;;5072851;28;20198;-71
2022/02/06 06:26:20;;;;;;;21.08;19.88;;;5.70;74.00;;;;;;5072682;28;20204;-71
2022/02/06 06:28:47;;;;;;;21.08;19.90;;;5.80;74.00;;;;;;5072727;28;20195;-71
2022/02/06 06:31:14;;;;;;;22.08;20.60;;;5.70;74.30;;;;;;5072523;28;20298;-71
2022/02/06 06:33:41;;;;;;;22.30;21.05;;;5.80;74.10;;;;;;5072550;28;20233;-71
2022/02/06 06:36:08;;;;;;;20.75;19.55;;;5.90;74.00;;;;;;5072741;28;20207;-71
2022/02/06 06:38:36;;;;;;;21.35;19.80;;;6.00;73.50;;;;;;5072686;28;20198;-71
2022/02/06 06:41:04;;;;;;;22.00;20.60;;;5.90;73.80;;;;;;5072271;28;20302;-71
2022/02/06 06:43:32;;;;;;;21.63;20.33;;;5.90;73.60;;;;;;5072570;28;20203;-71
2022/02/06 06:45:59;;;;;;;20.63;19.42;;;5.80;74.00;;;;;;5072513;28;20625;-71
2022/02/06 06:48:26;;;;;;;21.52;20.23;;;5.90;74.10;;;;;;5072527;28;20219;-71
2022/02/06 06:50:53;;;;;;;21.17;19.85;;;5.90;74.30;;;;;;5072324;28;20220;-71
2022/02/06 06:53:20;;;;;;;21.38;20.08;;;6.00;73.90;;;;;;5072272;28;20227;-71
2022/02/06 06:55:54;;;;;;;20.73;19.20;;;6.10;73.40;;;;;;5072341;28;20192;-71
2022/02/06 06:58:27;;;;;;;22.08;20.65;;;6.00;73.80;;;;;;5072194;28;20196;-71
2022/02/06 07:01:09;;;;;;;21.88;20.67;;;6.10;73.60;;;;;;5072167;28;20227;-71
2022/02/06 07:03:36;;;;;;;22.77;21.23;;;6.20;73.40;;;;;;5072274;28;20227;-71
2022/02/06 07:06:03;;;;;;;22.02;20.83;;;6.10;73.40;;;;;;5072363;28;20200;-71
2022/02/06 07:08:31;;;;;;;20.88;19.83;;;6.10;73.60;;;;;;5072247;28;20200;-71
2022/02/06 07:10:57;;;;;;;22.63;21.20;;;6.20;73.40;;;;;;5072108;28;20220;-71
2022/02/06 07:13:25;;;;;;;21.98;20.75;;;6.20;73.40;;;;;;5072118;28;20211;-71
2022/02/06 07:15:54;;;;;;;21.95;20.42;;;6.30;73.00;;;;;;5071833;28;20219;-71
2022/02/06 07:18:22;;;;;;;21.63;20.42;;;6.30;72.80;;;;;;5072241;28;20200;-71
2022/02/06 07:20:51;;;;;;;21.15;19.95;;;6.20;72.90;;;;;;5071903;28;20226;-72
2022/02/06 07:23:18;;;;;;;21.33;20.02;;;6.30;73.10;;;;;;5072374;28;20200;-72
2022/02/06 07:25:49;;;;;;;21.67;20.27;;;6.20;73.10;;;;;;5072225;28;20719;-72
2022/02/06 07:28:18;;;;;;;22.55;20.80;;;6.30;72.80;;;;;;5072298;28;20200;-72
2022/02/06 07:30:47;;;;;;;21.23;19.77;;;6.30;72.60;;;;;;5071899;28;20219;-72
2022/02/06 07:33:19;;;;;;;22.80;20.92;;;6.30;72.60;;;;;;5072197;28;20734;-72
2022/02/06 07:35:48;;;;;;;21.35;19.85;;;6.40;72.80;;;;;;5071986;28;20701;-72
2022/02/06 07:38:15;;;;;;;20.88;19.70;;;6.40;72.70;;;;;;5072145;28;20192;-72
2022/02/06 07:40:42;;;;;;;21.67;20.30;;;6.40;72.70;;;;;;5071856;28;20212;-72
2022/02/06 07:43:09;;;;;;;21.90;20.60;;;6.50;72.80;;;;;;5072085;28;20673;-72
2022/02/06 07:45:38;;;;;;;22.38;20.90;;;6.60;72.50;;;;;;5071992;28;20195;-72
2022/02/06 07:48:08;;;;;;;23.00;21.70;;;6.60;72.30;;;;;;5072006;28;20200;-72
2022/02/06 07:50:36;;;;;;;22.30;20.95;;;6.60;72.40;;;;;;5071750;28;20333;-72
2022/02/06 07:53:04;;;;;;;21.67;20.33;;;6.70;72.20;;;;;;5071922;28;20286;-72
2022/02/06 07:55:31;;;;;;;21.63;20.33;;;6.60;72.60;;;;;;5071678;28;20277;-72
2022/02/06 07:57:58;;;;;;;21.52;20.17;;;6.60;72.60;;;;;;5071741;28;20202;-72
2022/02/06 08:00:25;;;;;;;22.00;20.70;;;6.70;72.40;;;;;;5071686;28;20306;-72
2022/02/06 08:02:52;;;;;;;22.67;21.40;;;6.80;72.30;;;;;;5071899;28;20202;-72
2022/02/06 08:05:19;;;;;;;21.40;20.08;;;6.90;72.00;;;;;;5071758;28;20605;-72
2022/02/06 08:07:49;;;;;;;21.42;20.00;;;6.90;72.10;;;;;;5071690;28;20319;-72
2022/02/06 08:10:19;;;;;;;21.70;20.50;;;7.10;71.70;;;;;;5073254;28;20220;-72
2022/02/06 08:12:53;;;;;;;20.58;19.27;;;7.10;71.50;;;;;;5075295;28;20611;-71
2022/02/06 08:15:20;;;;;;;21.45;20.00;;;7.20;71.20;;;;;;5075106;28;20273;-72
2022/02/06 08:17:47;;;;;;;22.25;20.83;;;7.20;71.20;;;;;;5075183;28;20609;-72
2022/02/06 08:20:16;;;;;;;22.27;20.80;;;7.20;71.30;;;;;;5074707;28;20216;-72
2022/02/06 08:22:43;;;;;;;22.08;20.88;;;7.20;71.10;;;;;;5075105;28;20210;-72
2022/02/06 08:25:11;;;;;;;21.77;20.25;;;7.30;71.00;;;;;;5074987;28;20676;-72
2022/02/06 08:27:40;;;;;;;21.92;20.65;;;7.30;70.50;;;;;;5075127;28;20200;-72
2022/02/06 08:30:09;;;;;;;23.67;22.00;;;7.30;70.70;;;;;;5074759;28;20220;-72
2022/02/06 08:32:36;;;;;;;20.90;19.70;;;7.30;70.70;;;;;;5074973;28;20287;-71
2022/02/06 08:35:04;;;;;;;21.20;20.00;;;7.20;70.90;;;;;;5074838;28;20215;-71
2022/02/06 08:37:31;;;;;;;21.98;20.48;;;7.30;70.70;;;;;;5074900;28;20546;-72
2022/02/06 08:39:59;;;;;;;22.00;20.30;;;7.30;70.50;;;;;;5074588;28;20199;-72
2022/02/06 08:42:26;;;;;;;21.92;20.63;;;7.40;70.20;;;;;;5074695;28;20206;-72
2022/02/06 08:44:55;;;;;;;21.67;20.30;;;7.60;70.00;;;;;;5074746;28;20192;-72
2022/02/06 08:47:22;;;;;;;21.08;19.67;;;7.70;69.70;;;;;;5074723;28;20254;-71
2022/02/06 08:49:48;;;;;;;21.38;20.17;;;7.90;69.20;;;;;;5074201;28;20197;-72
2022/02/06 08:52:16;;;;;;;22.30;20.75;;;8.00;68.40;;;;;;5074708;28;20200;-72
2022/02/06 08:54:44;;;;;;;23.13;21.42;;;8.00;68.60;;;;;;5074439;28;20227;-72
2022/02/06 08:57:21;;;;;;;21.95;20.45;;;8.10;68.50;;;;;;5074522;28;20199;-72
2022/02/06 08:59:49;;;;;;;21.75;20.23;;;8.20;68.20;;;;;;5074268;28;20199;-72
2022/02/06 09:02:18;;;;;;;22.50;21.20;;;8.20;68.30;;;;;;5074453;28;20197;-72
2022/02/06 09:04:45;;;;;;;23.67;21.80;;;8.20;67.80;;;;;;5074470;28;20283;-72
2022/02/06 09:07:13;;;;;;;20.98;19.48;;;8.30;67.90;;;;;;5074438;28;20663;-72
2022/02/06 09:09:45;;;;;;;22.25;20.73;;;8.30;67.90;;;;;;5074018;28;20223;-72
2022/02/06 09:12:12;;;;;;;22.75;21.33;;;8.40;67.70;;;;;;5074414;28;20193;-72
2022/02/06 09:14:40;;;;;;;21.73;20.33;;;8.50;67.30;;;;;;5073705;28;20304;-72
2022/02/06 09:17:09;;;;;;;22.77;21.38;;;8.60;67.00;;;;;;5074087;28;20200;-72
2022/02/06 09:19:39;;;;;;;23.38;21.60;;;8.40;67.20;;;;;;5073823;28;20197;-72
2022/02/06 09:22:08;;;;;;;20.98;19.63;;;8.30;67.50;;;;;;5073881;28;20620;-72
2022/02/06 09:24:35;;;;;;;23.20;21.80;;;8.30;67.80;;;;;;5073833;28;20193;-72
2022/02/06 09:27:02;;;;;;;23.23;21.60;;;8.30;67.70;;;;;;5073754;28;20552;-72
2022/02/06 09:29:28;;;;;;;21.63;20.23;;;8.30;67.80;;;;;;5073608;28;20619;-72
2022/02/06 09:31:56;;;;;;;22.77;21.17;;;8.30;67.70;;;;;;5073648;28;20575;-72
2022/02/06 09:36:50;;;;;;;22.70;21.40;;;8.30;68.10;;;;;;5073693;28;20224;-72
2022/02/06 09:39:17;;;;;;;22.20;20.95;;;8.30;68.40;;;;;;5073455;28;21032;-72
2022/02/06 09:41:45;;;;;;;22.85;21.05;;;8.40;68.40;;;;;;5073415;28;20220;-72
2022/02/06 09:44:13;;;;;;;21.45;20.10;;;8.60;67.80;;;;;;5073389;28;20200;-72
2022/02/06 09:46:41;;;;;;;22.95;21.55;;;8.60;67.50;;;;;;5073423;28;20223;-72
2022/02/06 09:49:08;;;;;;;23.55;21.85;;;8.70;67.40;;;;;;5073204;28;20283;-72
2022/02/06 09:51:36;;;;;;;22.70;21.45;;;8.70;67.50;;;;;;5073389;28;20226;-72
2022/02/06 09:54:04;;;;;;;21.55;20.25;;;8.80;67.10;;;;;;5073320;28;20658;-72
2022/02/06 09:56:34;;;;;;;21.42;20.27;;;8.80;67.00;;;;;;5073127;28;20273;-72
2022/02/06 09:59:04;;;;;;;22.15;20.75;;;8.80;67.20;;;;;;5073146;28;20308;-72
2022/02/06 10:01:35;;;;;;;22.92;21.58;;;8.90;67.00;;;;;;5073154;28;20253;-72
2022/02/06 10:04:06;;;;;;;23.63;21.80;;;9.00;67.20;;;;;;5073203;28;20201;-72
2022/02/06 10:06:42;;;;;;;22.13;20.73;;;9.20;67.00;;;;;;5073103;28;20267;-72
2022/02/06 10:09:15;;;;;;;21.90;20.60;;;9.20;66.70;;;;;;5072930;28;20287;-72
2022/02/06 10:11:47;;;;;;;22.13;20.80;;;9.30;66.60;;;;;;5073111;28;20224;-72
2022/02/06 10:14:14;;;;;;;23.33;21.83;;;9.30;66.60;;;;;;5073103;28;20732;-72
2022/02/06 10:16:41;;;;;;;22.15;20.75;;;9.40;66.40;;;;;;5072499;28;20312;-72
2022/02/06 10:19:08;;;;;;;21.98;20.88;;;9.40;66.20;;;;;;5072777;28;20234;-72
2022/02/06 10:21:36;;;;;;;21.35;20.25;;;9.30;66.30;;;;;;5072620;28;20217;-72
2022/02/06 10:24:10;;;;;;;21.05;19.80;;;9.30;66.60;;;;;;5072787;28;20205;-72
2022/02/06 10:26:42;;;;;;;21.60;19.90;;;9.20;66.70;;;;;;5072747;28;20205;-72
2022/02/06 10:29:24;;;;;;;22.10;20.80;;;9.30;66.10;;;;;;5072523;28;20250;-72
2022/02/06 10:31:52;;;;;;;20.45;19.33;;;9.30;66.50;;;;;;5072313;28;20212;-72
2022/02/06 10:34:21;;;;;;;21.75;20.55;;;9.30;66.90;;;;;;5072392;28;20204;-72
2022/02/06 10:36:48;;;;;;;21.45;19.90;;;9.40;66.30;;;;;;5072537;28;20613;-72
2022/02/06 10:39:22;;;;;;;21.00;19.90;;;9.40;66.40;;;;;;5072418;28;20219;-72
2022/02/06 10:41:50;;;;;;;21.60;20.17;;;9.50;66.30;;;;;;5072485;28;20702;-72
2022/02/06 10:44:20;;;;;;;22.08;20.85;;;9.60;65.90;;;;;;5072277;28;20908;-72
2022/02/06 10:46:51;;;;;;;21.50;20.20;;;9.70;65.20;;;;;;5072428;28;20188;-72
2022/02/06 10:49:20;;;;;;;22.07;21.00;;;9.60;65.50;;;;;;5072275;28;20277;-72
2022/02/06 10:51:49;;;;;;;22.13;20.93;;;9.50;65.90;;;;;;5072360;28;20830;-72
2022/02/06 10:54:18;;;;;;;23.27;21.97;;;9.60;66.20;;;;;;5072409;28;20949;-72
2022/02/06 10:57:04;;;;;;;21.75;20.55;;;9.80;65.70;;;;;;5072235;28;20570;-72
2022/02/06 10:59:38;;;;;;;21.43;20.27;;;9.90;65.30;;;;;;5072281;28;20730;-72
2022/02/06 11:02:08;;;;;;;21.73;20.33;;;10.00;65.00;;;;;;5072197;28;20558;-72
2022/02/06 11:04:43;;;;;;;21.37;20.10;;;10.10;65.10;;;;;;5072333;28;20451;-72
2022/02/06 11:07:12;;;;;;;20.73;19.60;;;10.20;64.80;;;;;;5072308;28;20447;-72
2022/02/06 11:09:39;;;;;;;20.80;19.80;;;10.20;64.80;;;;;;5071901;28;20513;-72
2022/02/06 11:12:13;;;;;;;21.00;19.80;;;10.10;65.30;;;;;;5072155;28;21039;-72
2022/02/06 11:14:46;;;;;;;22.50;21.30;;;10.20;65.30;;;;;;5071949;28;20877;-72
2022/02/06 11:17:19;;;;;;;21.57;20.27;;;10.30;64.80;;;;;;5072318;28;20444;-72
2022/02/06 11:20:04;;;;;;;21.60;20.20;;;10.30;64.70;;;;;;5071691;28;20506;-72
2022/02/06 11:22:32;;;;;;;22.47;21.13;;;10.40;64.50;;;;;;5072239;28;20453;-73
2022/02/06 11:25:01;;;;;;;20.63;19.47;;;10.40;64.50;;;;;;5071994;28;20550;-73
2022/02/06 11:27:29;;;;;;;20.90;19.50;;;10.20;64.80;;;;;;5071928;28;20448;-73
2022/02/06 11:29:57;;;;;;;21.67;20.60;;;10.20;64.60;;;;;;5071682;28;20452;-72
2022/02/06 11:32:26;;;;;;;21.67;20.33;;;10.00;65.20;;;;;;5071950;28;20456;-72
2022/02/06 11:34:53;;;;;;;20.87;19.57;;;10.10;65.30;;;;;;5071911;28;20550;-72
2022/02/06 11:46:20;;;;;;;21.03;19.80;;;10.10;65.60;;;;;;5075224;28;20437;-72
2022/02/06 11:48:48;;;;;;;20.77;19.57;;;10.10;65.70;;;;;;5075558;28;20875;-72
2022/02/06 11:51:17;;;;;;;20.30;19.30;;;10.00;66.60;;;;;;5075324;28;20480;-72
2022/02/06 11:53:45;;;;;;;21.70;20.30;;;10.10;66.20;;;;;;5075539;28;20825;-72
2022/02/06 11:56:22;;;;;;;20.70;19.60;;;10.10;66.40;;;;;;5075348;28;20480;-72
2022/02/06 11:58:51;;;;;;;20.70;19.50;;;10.20;66.40;;;;;;5075585;28;20509;-73
2022/02/06 12:01:26;;;;;;;21.73;20.53;;;10.10;66.50;;;;;;5075030;28;20478;-72
2022/02/06 12:03:59;;;;;;;21.37;20.20;;;10.00;67.10;;;;;;5075415;28;20457;-72
2022/02/06 12:06:29;;;;;;;21.73;20.43;;;10.10;66.50;;;;;;5075288;28;20820;-73
2022/02/06 12:09:19;;;;;;;20.67;19.40;;;10.10;67.80;;;;;;5075317;28;20455;-72
2022/02/06 12:12:21;;;;;;;21.23;19.93;;;10.10;67.30;;;;;;5075135;28;20533;-72
2022/02/06 12:15:19;;;;;;;21.80;20.60;;;10.30;67.30;;;;;;5075177;28;20459;-72
2022/02/06 12:18:08;;;;;;;20.60;19.50;;;10.20;66.20;;;;;;5075121;28;20500;-73
2022/02/06 12:20:46;;;;;;;21.90;20.60;;;10.10;67.00;;;;;;5074693;28;20481;-72
2022/02/06 12:23:35;;;;;;;20.83;19.43;;;10.10;67.70;;;;;;5075098;28;20456;-73
2022/02/06 12:26:03;;;;;;;20.50;19.37;;;10.10;67.20;;;;;;5074936;28;20444;-73
2022/02/06 12:28:40;;;;;;;21.20;20.00;;;10.10;67.00;;;;;;5074858;28;20535;-72
2022/02/06 12:31:28;;;;;;;21.97;20.77;;;10.10;66.60;;;;;;5074661;28;20475;-73
2022/02/06 12:34:09;;;;;;;21.13;19.93;;;10.10;66.40;;;;;;5074844;28;20478;-72
2022/02/06 12:37:07;;;;;;;20.67;19.47;;;10.00;66.90;;;;;;5074697;28;20476;-72
2022/02/06 12:39:35;;;;;;;20.23;19.13;;;9.90;67.00;;;;;;5074522;28;20458;-72
2022/02/06 12:42:04;;;;;;;20.77;19.47;;;10.00;66.80;;;;;;5074612;28;20476;-72
2022/02/06 12:44:32;;;;;;;21.80;20.70;;;10.00;66.80;;;;;;5074645;28;20534;-73
2022/02/06 12:47:02;;;;;;;20.90;19.80;;;10.10;66.10;;;;;;5074546;28;20896;-72
2022/02/06 12:49:30;;;;;;;24.23;22.57;;;10.00;66.20;;;;;;5074635;28;20297;-73
2022/02/06 12:51:58;;;;;;;22.40;20.50;;;10.00;66.40;;;;;;5074492;28;20489;-73
2022/02/06 12:54:25;;;;;;;19.90;18.90;;;10.10;66.20;;;;;;5074405;28;20454;-73
2022/02/06 12:56:56;;;;;;;20.60;19.50;;;10.20;66.20;;;;;;5073834;28;20562;-72
2022/02/06 12:59:23;;;;;;;22.07;20.87;;;10.20;65.90;;;;;;5074272;28;20459;-72
2022/02/06 13:01:53;;;;;;;21.10;19.80;;;10.10;66.00;;;;;;5074268;28;20476;-72
2022/02/06 13:04:27;;;;;;;20.33;19.33;;;10.00;66.50;;;;;;5074233;28;20491;-72
2022/02/06 13:06:59;;;;;;;20.60;19.50;;;9.90;67.20;;;;;;5074371;28;20203;-73
2022/02/06 13:09:30;;;;;;;20.67;19.67;;;9.80;67.90;;;;;;5073981;28;20816;-72
2022/02/06 13:12:05;;;;;;;20.47;19.47;;;9.80;68.10;;;;;;5074431;28;20528;-73
2022/02/06 13:14:48;;;;;;;21.03;19.93;;;9.80;68.60;;;;;;5073942;28;20455;-72
2022/02/06 13:17:25;;;;;;;20.55;19.38;;;9.90;68.60;;;;;;5073913;28;20514;-72
2022/02/06 13:20:07;;;;;;;20.80;19.70;;;9.70;69.30;;;;;;5073177;28;20197;-72
2022/02/06 13:22:49;;;;;;;20.15;19.15;;;9.70;70.10;;;;;;5074075;28;20204;-72
2022/02/06 13:25:47;;;;;;;20.50;19.48;;;9.60;70.00;;;;;;5073820;28;20200;-72
2022/02/06 13:28:28;;;;;;;19.63;18.73;;;9.60;70.80;;;;;;5073563;28;20403;-72
2022/02/06 13:31:21;;;;;;;21.43;20.40;;;9.50;71.20;;;;;;5073437;28;20475;-72
2022/02/06 13:33:58;;;;;;;20.53;19.53;;;9.50;70.70;;;;;;5073697;28;20447;-72
2022/02/06 13:36:37;;;;;;;20.70;19.60;;;9.60;70.60;;;;;;5073499;28;20486;-72
2022/02/06 13:39:09;;;;;;;20.30;19.30;;;9.50;71.10;;;;;;5073574;28;20209;-72
2022/02/06 13:41:36;;;;;;;22.00;20.80;;;9.40;71.70;;;;;;5073384;28;20269;-72
2022/02/06 13:44:12;;;;;;;20.60;19.40;;;9.50;72.30;;;;;;5073337;28;20347;-72
2022/02/06 13:46:41;;;;;;;20.95;19.80;;;9.50;72.30;;;;;;5073401;28;20193;-72
2022/02/06 13:49:09;;;;;;;22.30;21.10;;;9.40;72.70;;;;;;5073128;28;20194;-72
2022/02/06 13:51:43;;;;;;;20.85;19.85;;;9.40;73.10;;;;;;5073503;28;20305;-72
2022/02/06 13:54:11;;;;;;;19.60;18.65;;;9.10;73.80;;;;;;5073265;28;20215;-72
2022/02/06 13:56:38;;;;;;;19.70;18.80;;;9.10;74.70;;;;;;5073054;28;20764;-72
2022/02/06 13:59:07;;;;;;;19.80;18.80;;;9.00;74.90;;;;;;5073142;28;20205;-72
2022/02/06 14:01:39;;;;;;;20.30;19.05;;;9.00;74.90;;;;;;5073253;28;20221;-72
2022/02/06 14:04:07;;;;;;;19.52;18.63;;;9.00;75.50;;;;;;5073050;28;20284;-72
2022/02/06 14:06:39;;;;;;;19.77;18.67;;;8.90;76.20;;;;;;5072815;28;20194;-72
2022/02/06 14:09:14;;;;;;;22.35;21.15;;;8.80;76.00;;;;;;5072685;28;20292;-72
2022/02/06 14:12:02;;;;;;;19.83;18.83;;;8.70;77.20;;;;;;5073128;28;20709;-72
2022/02/06 14:14:31;;;;;;;21.85;20.52;;;8.60;76.80;;;;;;5072920;28;20575;-72
2022/02/06 14:16:59;;;;;;;20.00;18.95;;;8.40;78.80;;;;;;5072542;28;20259;-72
2022/02/06 14:19:33;;;;;;;18.98;18.08;;;8.40;79.70;;;;;;5072627;28;20550;-72